Terminal Aerodrome Forecast
Issued by NWS Memphis, TN

Home | Current Version | Previous Version | Text Only | Print | Product List | Glossary On
Versions: 1 2 3 4 5 6 7 8 9 10 11 12 13 14 15 16
971
FTUS44 KMEG 291414 AAB
TAFJBR
TAF AMD
KJBR 291414Z 2914/3012 05012KT P6SM VCSH FEW030 BKN150
     FM291500 07008KT P6SM VCTS BKN050CB BKN120
      TEMPO 2915/2919 VRB15G25KT 2SM TSRA BR OVC020CB
     FM300100 10008KT 6SM -TSRA BR OVC050CB
     FM300700 16014KT 6SM -TSRA BR OVC050CB=

USA.gov is the U.S. government's official web portal to all federal, state and local government web resources and services.